Time;durP1;ratioP1;P1;durP2;ratioP2;P2;SDS_P1;SDS_P2;PMS_P1;PMS_P2;Temp;Humidity;BMP_temperature;BMP_pressure;BME280_temperature;BME280_humidity;BME280_pressure;Samples;Min_cycle;Max_cycle;Signal;HPM_P1;HPM_P2
2022/06/01 00:01:33;;;;;;;23.05;12.95;;;;;;;7.29;100.00;101410.00;5277828;28;20088;-70
2022/06/01 00:04:03;;;;;;;21.55;12.07;;;;;;;7.25;100.00;101419.25;5267864;28;20099;-69
2022/06/01 00:06:34;;;;;;;23.42;12.10;;;;;;;7.26;100.00;101418.25;5272849;28;20097;-69
2022/06/01 00:09:05;;;;;;;22.70;13.32;;;;;;;7.32;100.00;101415.06;5274687;28;20077;-70
2022/06/01 00:11:35;;;;;;;22.52;12.27;;;;;;;7.31;100.00;101415.19;5267612;28;20035;-70
2022/06/01 00:14:07;;;;;;;25.85;14.43;;;;;;;7.29;100.00;101415.34;5281128;28;20552;-70
2022/06/01 00:16:37;;;;;;;26.80;14.55;;;;;;;7.23;100.00;101414.06;5267580;28;20055;-71
2022/06/01 00:19:08;;;;;;;23.63;14.05;;;;;;;7.22;100.00;101414.16;5269117;28;20024;-70
2022/06/01 00:22:11;;;;;;;26.25;14.43;;;;;;;7.21;100.00;101415.13;5279132;28;20031;-70
2022/06/01 00:24:29;;;;;;;25.10;15.02;;;;;;;7.24;100.00;101412.22;5280925;28;20385;-70
2022/06/01 00:27:00;;;;;;;27.55;15.82;;;;;;;7.23;100.00;101400.72;5275026;28;20034;-70
2022/06/01 00:29:30;;;;;;;31.77;17.35;;;;;;;7.21;100.00;101404.47;5287632;28;20027;-70
2022/06/01 00:32:02;;;;;;;32.10;17.75;;;;;;;7.17;100.00;101405.69;5288365;28;20024;-70
2022/06/01 00:34:33;;;;;;;104.35;18.15;;;;;;;7.18;100.00;101405.59;5290537;28;20039;-70
2022/06/01 00:37:04;;;;;;;161.25;17.58;;;;;;;7.16;100.00;101406.69;5288931;27;20020;-70
2022/06/01 00:39:35;;;;;;;27.75;15.43;;;;;;;7.16;100.00;101415.53;5281048;28;20019;-69
2022/06/01 00:42:12;;;;;;;26.33;14.60;;;;;;;7.14;100.00;101414.81;5274543;28;20190;-69
2022/06/01 00:44:44;;;;;;;26.17;15.50;;;;;;;7.14;100.00;101417.50;5275536;28;20031;-70
2022/06/01 00:47:16;;;;;;;22.33;13.05;;;;;;;7.13;100.00;101413.13;5274588;28;20021;-69
2022/06/01 00:49:55;;;;;;;24.92;13.93;;;;;;;7.12;100.00;101419.44;5274565;28;20023;-69
2022/06/01 00:55:19;;;;;;;18.13;11.20;;;;;;;7.12;100.00;101413.25;5280599;28;20055;-70
2022/06/01 00:57:55;;;;;;;20.98;13.40;;;;;;;7.11;100.00;101407.06;5266826;28;20016;-70
2022/06/01 01:00:28;;;;;;;24.05;14.25;;;;;;;7.07;100.00;101405.63;5267278;28;20099;-69
2022/06/01 01:03:03;;;;;;;25.00;14.20;;;;;;;7.04;100.00;101410.41;5269346;28;20484;-70
2022/06/01 01:05:34;;;;;;;24.90;12.43;;;;;;;7.07;100.00;101410.13;5267389;28;20047;-70
2022/06/01 01:08:05;;;;;;;21.80;12.82;;;;;;;7.09;100.00;101417.03;5267015;28;20429;-70
2022/06/01 01:10:36;;;;;;;16.42;10.70;;;;;;;7.11;100.00;101415.06;5279280;28;20028;-69
2022/06/01 01:13:09;;;;;;;22.30;12.38;;;;;;;7.10;100.00;101415.22;5267354;28;20036;-70
2022/06/01 01:16:00;;;;;;;20.80;11.90;;;;;;;7.06;100.00;101419.09;5279582;28;20031;-70
2022/06/01 01:18:36;;;;;;;23.13;14.00;;;;;;;6.98;100.00;101423.28;5278002;28;20051;-69
2022/06/01 01:21:31;;;;;;;22.35;12.05;;;;;;;6.90;100.00;101420.41;5281981;28;20032;-69
2022/06/01 01:24:09;;;;;;;17.02;11.20;;;;;;;6.80;100.00;101414.16;5269518;28;20080;-69
2022/06/01 01:27:00;;;;;;;17.40;10.82;;;;;;;6.77;100.00;101410.88;5279491;28;20032;-69
2022/06/01 01:29:34;;;;;;;17.15;7.35;;;;;;;6.70;100.00;101413.22;5273603;28;20065;-69
2022/06/01 01:32:07;;;;;;;17.20;11.13;;;;;;;6.60;100.00;101417.63;5287012;28;20072;-69
2022/06/01 01:34:40;;;;;;;25.33;13.07;;;;;;;6.53;100.00;101408.44;5266445;28;20366;-69
2022/06/01 01:37:18;;;;;;;23.15;13.32;;;;;;;6.54;100.00;101408.31;5269567;28;20023;-69
2022/06/01 01:39:53;;;;;;;26.67;14.52;;;;;;;6.59;100.00;101410.59;5275306;28;20027;-70
2022/06/01 01:42:24;;;;;;;20.27;12.82;;;;;;;6.59;100.00;101421.25;5280627;28;20020;-69
2022/06/01 01:45:08;;;;;;;23.42;12.18;;;;;;;6.57;100.00;101418.69;5280262;28;20028;-69
2022/06/01 01:47:39;;;;;;;24.20;13.65;;;;;;;6.61;100.00;101417.47;5275875;28;20047;-69
2022/06/01 01:50:10;;;;;;;28.35;14.10;;;;;;;6.68;100.00;101418.69;5273534;28;20082;-69
2022/06/01 01:52:41;;;;;;;24.55;12.50;;;;;;;6.72;100.00;101414.78;5287148;28;20023;-69
2022/06/01 01:55:24;;;;;;;27.23;12.57;;;;;;;6.79;100.00;101414.28;5282062;28;20710;-69
2022/06/01 01:58:29;;;;;;;22.13;11.38;;;;;;;6.83;100.00;101419.22;5266275;28;20496;-70
2022/06/01 02:01:07;;;;;;;23.17;12.15;;;;;;;6.91;100.00;101415.91;5277787;28;20431;-69
2022/06/01 02:03:44;;;;;;;22.42;11.48;;;;;;;6.93;100.00;101411.31;5273044;28;20020;-69
2022/06/01 02:06:25;;;;;;;21.33;11.15;;;;;;;6.95;100.00;101409.34;5273225;28;20062;-70
2022/06/01 02:09:04;;;;;;;;;;;;;;;6.99;100.00;101414.31;5276198;28;20019;-69
2022/06/01 02:14:30;;;;;;;20.40;9.88;;;;;;;7.00;100.00;101409.81;5269861;28;20024;-70
2022/06/01 02:17:32;;;;;;;17.27;10.20;;;;;;;6.98;100.00;101403.75;5265986;28;20036;-69
2022/06/01 02:20:26;;;;;;;17.92;9.70;;;;;;;6.92;100.00;101404.25;5265638;28;20489;-69
2022/06/01 02:22:58;;;;;;;19.55;10.52;;;;;;;6.86;100.00;101408.28;5284270;28;20028;-69
2022/06/01 02:25:29;;;;;;;18.40;9.95;;;;;;;6.79;100.00;101409.78;5271024;28;20040;-69
2022/06/01 02:27:59;;;;;;;17.60;10.27;;;;;;;6.77;100.00;101410.88;5283370;28;20027;-69
2022/06/01 02:30:35;;;;;;;22.15;10.82;;;;;;;6.79;100.00;101415.13;5277160;28;20359;-69
2022/06/01 02:33:16;;;;;;;18.45;10.32;;;;;;;6.81;100.00;101414.97;5289164;27;20055;-70
2022/06/01 02:35:51;;;;;;;17.73;9.48;;;;;;;6.83;100.00;101402.34;5271762;28;20502;-70
2022/06/01 02:38:27;;;;;;;19.17;9.18;;;;;;;6.83;100.00;101400.56;5283138;28;20442;-70
2022/06/01 02:41:01;;;;;;;19.35;8.90;;;;;;;6.84;100.00;101401.41;5277196;28;20027;-70
2022/06/01 02:43:31;;;;;;;18.08;9.63;;;;;;;6.81;100.00;101399.81;5288906;28;20082;-69
2022/06/01 02:46:02;;;;;;;17.08;9.00;;;;;;;6.75;100.00;101401.19;5269587;28;20114;-70
2022/06/01 02:48:32;;;;;;;15.77;8.23;;;;;;;6.71;100.00;101399.75;5283326;28;20103;-70
2022/06/01 02:51:03;;;;;;;16.17;9.05;;;;;;;6.66;100.00;101403.78;5269324;28;20145;-70
2022/06/01 02:53:33;;;;;;;14.35;7.43;;;;;;;6.56;100.00;101410.84;5283083;28;20024;-70
2022/06/01 02:56:05;;;;;;;12.98;8.20;;;;;;;6.46;100.00;101403.59;5269593;28;20098;-69
2022/06/01 02:58:37;;;;;;;18.25;9.00;;;;;;;6.40;100.00;101404.09;5289484;28;20031;-70
2022/06/01 03:01:08;;;;;;;23.27;11.35;;;;;;;6.38;100.00;101405.22;5280533;27;20116;-69
2022/06/01 03:03:39;;;;;;;16.52;7.50;;;;;;;6.32;100.00;101408.34;5290373;28;20055;-70
2022/06/01 03:06:10;;;;;;;12.30;7.55;;;;;;;6.21;100.00;101410.06;5274254;28;20092;-70
2022/06/01 03:08:41;;;;;;;15.85;8.48;;;;;;;6.17;100.00;101408.63;5269351;28;20028;-70
2022/06/01 03:11:13;;;;;;;16.67;8.40;;;;;;;6.15;100.00;101415.06;5282847;28;20024;-70
2022/06/01 03:13:43;;;;;;;18.23;8.88;;;;;;;6.15;100.00;101405.25;5280094;28;20039;-69
2022/06/01 03:16:14;;;;;;;13.00;7.65;;;;;;;6.16;100.00;101408.75;5270942;28;20254;-69
2022/06/01 03:18:44;;;;;;;15.27;7.95;;;;;;;6.19;100.00;101404.03;5281167;28;20050;-69
2022/06/01 03:21:15;;;;;;;17.92;8.30;;;;;;;6.19;100.00;101409.38;5270415;28;20035;-69
2022/06/01 03:23:45;;;;;;;16.38;7.70;;;;;;;6.15;100.00;101412.41;5282341;28;20023;-70
2022/06/01 03:26:16;;;;;;;13.73;7.70;;;;;;;6.11;100.00;101416.28;5270084;27;20069;-69
2022/06/01 03:28:46;;;;;;;14.10;8.02;;;;;;;6.06;100.00;101418.47;5274392;28;20085;-70
2022/06/01 03:31:17;;;;;;;14.45;6.50;;;;;;;6.06;100.00;101424.63;5268762;28;20458;-70
2022/06/01 03:33:48;;;;;;;14.98;7.70;;;;;;;6.11;100.00;101421.59;5280501;28;20042;-70
2022/06/01 03:36:19;;;;;;;16.35;7.93;;;;;;;6.10;100.00;101419.91;5278971;28;20031;-70
2022/06/01 03:38:50;;;;;;;16.65;7.72;;;;;;;6.06;100.00;101413.97;5285395;28;20085;-71
2022/06/01 03:41:22;;;;;;;14.35;7.38;;;;;;;6.05;100.00;101420.28;5268225;28;20024;-71
2022/06/01 03:46:43;;;;;;;14.55;8.02;;;;;;;6.01;100.00;101421.50;5282403;28;20023;-71
2022/06/01 03:49:14;;;;;;;14.20;7.97;;;;;;;5.98;100.00;101419.09;5276759;28;20537;-70
2022/06/01 03:51:44;;;;;;;15.95;8.25;;;;;;;5.92;100.00;101420.44;5275241;28;20031;-70
2022/06/01 03:54:15;;;;;;;12.02;7.07;;;;;;;5.82;100.00;101431.88;5289484;28;20027;-70
2022/06/01 03:56:46;;;;;;;17.58;7.72;;;;;;;5.80;100.00;101423.19;5284830;28;20020;-70
2022/06/01 03:59:16;;;;;;;12.80;7.60;;;;;;;5.84;100.00;101421.97;5280916;28;20030;-70
2022/06/01 04:01:47;;;;;;;11.68;6.68;;;;;;;5.92;100.00;101427.56;5279157;28;20047;-70
2022/06/01 04:04:17;;;;;;;11.50;6.53;;;;;;;5.92;100.00;101425.75;5275122;28;20473;-70
2022/06/01 04:06:48;;;;;;;12.43;6.93;;;;;;;5.94;100.00;101417.66;5280653;28;20520;-70
2022/06/01 04:09:18;;;;;;;33.72;7.10;;;;;;;5.93;100.00;101416.78;5281635;28;20057;-69
2022/06/01 04:11:51;;;;;;;11.30;6.40;;;;;;;5.89;100.00;101419.78;5267969;28;20392;-69
2022/06/01 04:14:23;;;;;;;15.32;6.80;;;;;;;5.90;100.00;101427.66;5267604;28;20106;-69
2022/06/01 04:16:53;;;;;;;64.07;8.60;;;;;;;5.90;100.00;101432.97;5267210;28;20448;-69
2022/06/01 04:19:24;;;;;;;14.10;6.70;;;;;;;5.90;100.00;101425.00;5281474;28;20024;-70
2022/06/01 04:21:55;;;;;;;14.00;7.82;;;;;;;5.94;100.00;101429.13;5278660;28;20027;-70
2022/06/01 04:24:28;;;;;;;25.27;9.63;;;;;;;6.01;100.00;101431.31;5284271;28;20027;-69
2022/06/01 04:26:59;;;;;;;15.80;8.18;;;;;;;6.06;100.00;101429.13;5274764;28;20038;-69
2022/06/01 04:29:30;;;;;;;13.35;7.38;;;;;;;6.09;100.00;101423.56;5281354;28;20506;-69
2022/06/01 04:32:05;;;;;;;20.45;9.27;;;;;;;6.13;100.00;101431.19;5268511;28;20046;-69
2022/06/01 04:34:36;;;;;;;16.45;7.65;;;;;;;6.21;100.00;101433.22;5279657;28;20069;-69
2022/06/01 04:37:07;;;;;;;14.93;8.32;;;;;;;6.28;100.00;101431.78;5284068;28;20068;-69
2022/06/01 04:39:38;;;;;;;24.23;10.15;;;;;;;6.37;100.00;101432.81;5277884;28;20473;-70
2022/06/01 04:42:08;;;;;;;24.63;10.68;;;;;;;6.53;100.00;101429.78;5281031;28;20059;-70
2022/06/01 04:44:40;;;;;;;25.58;11.13;;;;;;;6.78;100.00;101437.44;5278199;28;20039;-70
2022/06/01 04:47:11;;;;;;;24.58;11.52;;;;;;;6.98;100.00;101419.78;5269351;28;20473;-70
2022/06/01 04:49:41;;;;;;;22.13;12.27;;;;;;;7.13;100.00;101426.47;5280307;28;20037;-69
2022/06/01 04:52:12;;;;;;;23.15;9.48;;;;;;;7.22;100.00;101423.00;5267273;28;20027;-68
2022/06/01 04:54:42;;;;;;;23.33;9.63;;;;;;;7.28;100.00;101424.34;5267184;28;20461;-68
2022/06/01 04:57:13;;;;;;;23.52;9.73;;;;;;;7.29;100.00;101435.84;5274093;28;20023;-68
2022/06/01 04:59:43;;;;;;;15.57;8.55;;;;;;;7.29;100.00;101434.03;5274565;28;20024;-68
2022/06/01 05:02:15;;;;;;;18.75;7.82;;;;;;;7.35;100.00;101440.66;5274417;28;20447;-68
2022/06/01 05:04:45;;;;;;;12.93;7.30;;;;;;;7.43;100.00;101441.72;5269377;28;20059;-68
2022/06/01 05:07:16;;;;;;;16.90;6.95;;;;;;;7.51;100.00;101447.22;5288178;28;20091;-68
2022/06/01 05:09:46;;;;;;;17.80;7.82;;;;;;;7.71;100.00;101452.66;5283759;28;20036;-68
2022/06/01 05:12:17;;;;;;;19.00;7.43;;;;;;;7.90;100.00;101450.09;5278557;28;20534;-68
2022/06/01 05:14:48;;;;;;;15.95;6.75;;;;;;;8.05;100.00;101447.91;5273749;28;20027;-68
2022/06/01 05:17:19;;;;;;;15.10;7.18;;;;;;;8.19;100.00;101447.53;5274059;28;20028;-68
2022/06/01 05:19:49;;;;;;;13.48;6.55;;;;;;;8.35;100.00;101455.03;5280529;28;20481;-68
2022/06/01 05:22:20;;;;;;;11.50;6.40;;;;;;;8.57;100.00;101441.44;5280672;28;20053;-68
2022/06/01 05:24:50;;;;;;;17.20;6.60;;;;;;;8.75;100.00;101444.28;5279633;28;20031;-68
2022/06/01 05:27:22;;;;;;;15.63;6.45;;;;;;;8.87;100.00;101439.63;5273746;28;20107;-68
2022/06/01 05:29:52;;;;;;;15.43;8.18;;;;;;;9.08;100.00;101444.84;5276624;28;20436;-68
2022/06/01 05:32:24;;;;;;;11.38;6.40;;;;;;;9.31;100.00;101450.75;5273673;28;20051;-68
2022/06/01 05:34:55;;;;;;;15.35;6.50;;;;;;;9.50;100.00;101452.53;5275615;28;20034;-68
2022/06/01 05:37:25;;;;;;;15.70;6.88;;;;;;;9.61;100.00;101449.69;5271871;28;20030;-68
2022/06/01 05:39:56;;;;;;;15.50;7.13;;;;;;;9.75;100.00;101453.75;5287278;28;20035;-68
2022/06/01 05:42:26;;;;;;;15.25;6.70;;;;;;;9.93;100.00;101453.81;5273607;28;20033;-68
2022/06/01 05:44:57;;;;;;;13.27;6.28;;;;;;;10.09;100.00;101454.00;5273419;28;20428;-68
2022/06/01 05:47:27;;;;;;;16.23;6.43;;;;;;;10.19;100.00;101451.28;5277964;28;20026;-68
2022/06/01 05:49:58;;;;;;;13.18;5.35;;;;;;;10.24;100.00;101449.03;5279950;28;20028;-68
2022/06/01 05:52:28;;;;;;;16.10;6.07;;;;;;;10.38;100.00;101453.88;5265766;28;20074;-68
2022/06/01 05:54:59;;;;;;;13.32;5.43;;;;;;;10.39;100.00;101455.56;5279144;28;20031;-68
2022/06/01 05:57:29;;;;;;;16.80;6.32;;;;;;;10.40;100.00;101459.13;5276699;28;20027;-68
2022/06/01 06:00:01;;;;;;;9.95;5.80;;;;;;;10.57;100.00;101460.97;5287182;28;20446;-68
2022/06/01 06:02:31;;;;;;;9.45;5.47;;;;;;;10.68;100.00;101446.50;5271126;28;20028;-68
2022/06/01 06:05:02;;;;;;;13.82;6.07;;;;;;;10.76;100.00;101451.97;5279212;28;20047;-68
2022/06/01 06:07:33;;;;;;;13.77;5.93;;;;;;;10.91;100.00;101457.63;5266829;28;20024;-68
2022/06/01 06:10:04;;;;;;;12.27;6.15;;;;;;;11.22;100.00;101456.22;5280852;27;20020;-68
2022/06/01 06:12:34;;;;;;;16.23;6.47;;;;;;;11.67;100.00;101456.03;5276830;28;20049;-68
2022/06/01 06:15:06;;;;;;;14.38;7.10;;;;;;;11.97;100.00;101458.44;5271225;28;20031;-68
2022/06/01 06:17:37;;;;;;;14.95;6.18;;;;;;;12.10;100.00;101464.22;5271103;28;20053;-68
2022/06/01 06:20:08;;;;;;;17.15;6.78;;;;;;;12.10;100.00;101467.75;5284322;28;20023;-68
2022/06/01 06:22:38;;;;;;;16.98;6.63;;;;;;;12.28;100.00;101458.72;5280034;28;20031;-68
2022/06/01 06:25:09;;;;;;;11.85;6.47;;;;;;;12.36;100.00;101465.00;5274512;28;20469;-68
2022/06/01 06:27:40;;;;;;;14.00;7.43;;;;;;;12.32;100.00;101468.16;5264526;28;20024;-69
2022/06/01 06:30:11;;;;;;;13.32;6.03;;;;;;;12.37;100.00;101465.84;5275536;28;20030;-68
2022/06/01 06:32:41;;;;;;;11.90;6.68;;;;;;;12.35;100.00;101474.06;5284413;28;20465;-68
2022/06/01 06:35:13;;;;;;;12.45;6.13;;;;;;;12.42;100.00;101477.78;5283479;28;20028;-68
2022/06/01 06:37:44;;;;;;;18.42;7.53;;;;;;;12.64;100.00;101487.09;5284236;28;20027;-68
2022/06/01 06:40:14;;;;;;;18.20;6.45;;;;;;;13.45;100.00;101481.00;5283783;28;20026;-68
2022/06/01 06:42:45;;;;;;;12.68;5.75;;;;;;;13.77;100.00;101478.44;5282646;28;20043;-68
2022/06/01 06:45:16;;;;;;;17.13;6.75;;;;;;;13.82;100.00;101473.34;5283230;28;20016;-68
2022/06/01 06:47:47;;;;;;;13.57;5.60;;;;;;;14.61;100.00;101475.09;5284494;28;20431;-68
2022/06/01 06:50:19;;;;;;;10.07;5.63;;;;;;;15.17;100.00;101475.72;5283582;28;20176;-68
2022/06/01 06:52:50;;;;;;;12.93;6.35;;;;;;;15.27;100.00;101483.59;5283328;28;20023;-68
2022/06/01 06:55:20;;;;;;;12.27;6.45;;;;;;;15.22;100.00;101483.31;5282986;28;20024;-68
2022/06/01 06:57:51;;;;;;;14.52;6.85;;;;;;;14.72;100.00;101490.06;5269649;28;20427;-69
2022/06/01 07:00:22;;;;;;;14.77;6.15;;;;;;;14.84;100.00;101482.38;5262891;28;20045;-69
2022/06/01 07:02:52;;;;;;;18.48;5.75;;;;;;;15.11;100.00;101476.47;5267953;28;20039;-68
2022/06/01 07:08:12;;;;;;;15.55;5.70;;;;;;;16.99;100.00;101487.88;5281170;28;20428;-69
2022/06/01 07:10:42;;;;;;;15.82;6.13;;;;;;;17.72;100.00;101492.09;5280286;28;20027;-69
2022/06/01 07:13:13;;;;;;;12.70;4.90;;;;;;;18.60;100.00;101500.53;5287558;28;20019;-69
2022/06/01 07:15:43;;;;;;;9.52;4.82;;;;;;;19.03;100.00;101503.84;5274343;28;20036;-69
2022/06/01 07:18:14;;;;;;;11.75;6.05;;;;;;;19.20;100.00;101511.59;5266088;28;20277;-69
2022/06/01 07:20:45;;;;;;;15.20;5.85;;;;;;;19.35;100.00;101501.38;5280148;28;20019;-69
2022/06/01 07:23:15;;;;;;;15.25;5.25;;;;;;;19.32;100.00;101505.31;5266434;28;20020;-69
2022/06/01 07:25:46;;;;;;;8.20;4.72;;;;;;;19.03;100.00;101506.56;5279479;28;20389;-69
2022/06/01 07:28:16;;;;;;;11.07;4.82;;;;;;;18.67;100.00;101504.09;5273381;28;20034;-69
2022/06/01 07:30:49;;;;;;;8.18;4.55;;;;;;;19.03;100.00;101511.16;5283894;28;20019;-69
2022/06/01 07:33:19;;;;;;;19.08;5.30;;;;;;;19.85;100.00;101512.69;5287128;28;20038;-69
2022/06/01 07:35:50;;;;;;;9.38;4.45;;;;;;;20.38;100.00;101513.41;5286636;28;20027;-69
2022/06/01 07:44:10;;;;;;;13.63;4.55;;;;;;;19.38;100.00;101509.13;5273117;28;20023;-69
2022/06/01 07:46:40;;;;;;;9.55;4.53;;;;;;;18.79;100.00;101504.41;5287013;28;20072;-69
2022/06/01 07:49:10;;;;;;;10.63;5.55;;;;;;;17.99;100.00;101505.88;5286569;28;20023;-69
2022/06/01 07:51:41;;;;;;;10.73;5.20;;;;;;;17.28;100.00;101500.47;5286622;28;20036;-69
2022/06/01 07:54:12;;;;;;;12.63;5.45;;;;;;;16.84;100.00;101504.19;5276754;28;20020;-70
2022/06/01 07:56:43;;;;;;;10.55;5.57;;;;;;;16.63;100.00;101512.25;5282738;28;20404;-69
2022/06/01 07:59:13;;;;;;;13.80;6.43;;;;;;;16.56;100.00;101504.88;5287067;28;20085;-69
2022/06/01 08:01:44;;;;;;;13.90;6.13;;;;;;;17.00;100.00;101511.25;5272319;27;20063;-69
2022/06/01 08:04:16;;;;;;;6.97;4.30;;;;;;;18.06;100.00;101501.31;5285991;28;20094;-69
2022/06/01 08:06:46;;;;;;;9.27;4.32;;;;;;;20.07;100.00;101499.66;5266488;28;20046;-69
2022/06/01 08:09:17;;;;;;;14.25;5.28;;;;;;;19.45;100.00;101511.84;5279113;28;20023;-69
2022/06/01 08:14:37;;;;;;;8.43;4.85;;;;;;;17.89;100.00;101513.53;5272361;28;20046;-69
2022/06/01 08:17:07;;;;;;;10.60;4.20;;;;;;;18.74;100.00;101513.16;5274475;28;20025;-69
2022/06/01 08:19:38;;;;;;;7.25;4.18;;;;;;;20.18;100.00;101515.34;5270122;28;20049;-69
2022/06/01 08:22:08;;;;;;;9.75;4.13;;;;;;;20.71;100.00;101512.47;5286138;28;20023;-69
2022/06/01 08:24:39;;;;;;;6.65;3.65;;;;;;;21.72;86.04;101509.69;5271527;28;20034;-69
2022/06/01 08:27:10;;;;;;;9.07;4.35;;;;;;;21.08;90.74;101516.22;5279548;28;20020;-69
2022/06/01 08:29:40;;;;;;;8.70;4.18;;;;;;;20.65;94.88;101510.59;5286350;28;20028;-69
2022/06/01 08:32:11;;;;;;;8.57;4.20;;;;;;;19.82;96.06;101516.66;5270260;27;20085;-69
2022/06/01 08:34:42;;;;;;;8.30;4.35;;;;;;;18.91;100.00;101515.50;5285897;28;20042;-69
2022/06/01 08:37:12;;;;;;;10.25;4.43;;;;;;;17.99;100.00;101509.41;5270269;28;20028;-69
2022/06/01 08:39:44;;;;;;;8.90;3.70;;;;;;;17.68;100.00;101522.53;5274729;28;20054;-69
2022/06/01 08:42:19;;;;;;;8.20;3.85;;;;;;;17.44;100.00;101519.19;5265602;28;20030;-69
2022/06/01 08:44:50;;;;;;;;;;;;;;;17.65;100.00;101523.75;5272652;27;20027;-69
2022/06/01 08:47:40;;;;;;;5.25;3.72;;;;;;;17.88;100.00;101520.00;5272082;28;19908;-69
2022/06/01 08:50:20;;;;;;;7.70;3.75;;;;;;;17.44;100.00;101521.06;5267296;28;20111;-69
2022/06/01 08:52:53;;;;;;;7.07;3.75;;;;;;;17.34;100.00;101522.22;5277720;28;20030;-69
2022/06/01 08:55:27;;;;;;;5.80;3.47;;;;;;;17.18;100.00;101530.63;5284986;27;20031;-69
2022/06/01 08:58:04;;;;;;;8.32;4.05;;;;;;;17.25;100.00;101534.25;5284984;28;20499;-69
2022/06/01 09:00:42;;;;;;;7.82;3.85;;;;;;;17.01;100.00;101531.91;5276196;28;20262;-69
2022/06/01 09:03:23;;;;;;;6.60;3.42;;;;;;;16.64;100.00;101530.19;5282209;28;20016;-69
2022/06/01 09:06:09;;;;;;;5.28;3.33;;;;;;;16.23;100.00;101534.25;5285257;28;20020;-69
2022/06/01 09:08:44;;;;;;;;;;;;;;;16.01;100.00;101527.03;5274189;28;20035;-69
2022/06/01 09:11:23;;;;;;;6.90;3.20;;;;;;;16.72;100.00;101530.97;5285475;28;19911;-69
2022/06/01 09:14:16;;;;;;;10.63;3.30;;;;;;;17.29;100.00;101535.53;5285226;28;20284;-69
2022/06/01 09:16:50;;;;;;;7.75;2.85;;;;;;;17.05;100.00;101535.91;5275943;28;20035;-69
2022/06/01 09:19:27;;;;;;;6.07;2.83;;;;;;;16.91;100.00;101534.06;5267564;28;20023;-69
2022/06/01 09:24:51;;;;;;;4.07;2.80;;;;;;;16.84;100.00;101531.31;5272557;28;20031;-69
2022/06/01 09:27:35;;;;;;;4.60;2.45;;;;;;;16.86;100.00;101528.38;5270662;28;20810;-69
2022/06/01 09:30:20;;;;;;;7.23;2.47;;;;;;;17.05;100.00;101534.03;5285350;28;20437;-69
2022/06/01 09:33:26;;;;;;;5.47;3.05;;;;;;;17.24;100.00;101537.16;5283331;28;20280;-69
2022/06/01 09:36:03;;;;;;;8.80;2.50;;;;;;;17.27;100.00;101534.91;5278086;28;20032;-69
2022/06/01 09:38:51;;;;;;;6.05;3.00;;;;;;;17.14;100.00;101537.47;5265690;28;20093;-69
2022/06/01 09:41:27;;;;;;;5.43;2.65;;;;;;;16.92;100.00;101531.19;5284708;28;20031;-69
2022/06/01 09:44:02;;;;;;;5.93;2.33;;;;;;;16.80;100.00;101527.28;5284353;28;20175;-69
2022/06/01 09:46:35;;;;;;;7.15;2.75;;;;;;;16.73;100.00;101531.81;5284633;28;20485;-69
2022/06/01 09:49:43;;;;;;;4.40;2.85;;;;;;;16.85;100.00;101529.44;5276774;28;20020;-69
2022/06/01 09:52:28;;;;;;;4.50;2.85;;;;;;;18.19;100.00;101523.13;5270867;28;20031;-69
2022/06/01 09:55:12;;;;;;;7.07;2.95;;;;;;;19.40;100.00;101520.63;5284454;28;20115;-69
2022/06/01 09:57:44;;;;;;;3.80;2.45;;;;;;;19.85;90.54;101523.56;5270809;28;20103;-69
2022/06/01 10:06:21;;;;;;;7.80;2.85;;;;;;;19.58;92.29;101520.00;5283292;28;20028;-69
2022/06/01 10:09:14;;;;;;;7.60;2.80;;;;;;;19.33;89.10;101520.63;5284300;28;20024;-69
2022/06/01 10:11:46;;;;;;;3.95;2.00;;;;;;;18.48;93.19;101519.31;5271161;28;20076;-69
2022/06/01 10:14:39;;;;;;;3.20;2.10;;;;;;;18.41;95.23;101521.13;5269728;27;20051;-69
2022/06/01 10:17:19;;;;;;;8.27;2.75;;;;;;;18.55;97.23;101517.44;5271503;28;20032;-69
2022/06/01 10:19:58;;;;;;;6.10;2.40;;;;;;;18.45;92.29;101525.13;5271299;28;20084;-69
2022/06/01 10:22:45;;;;;;;5.88;2.38;;;;;;;18.60;90.74;101514.13;5281727;28;20023;-69
2022/06/01 10:25:21;;;;;;;3.78;2.58;;;;;;;18.21;91.28;101518.31;5274984;28;20055;-69
2022/06/01 10:28:06;;;;;;;8.63;2.70;;;;;;;17.87;99.70;101524.56;5276090;28;20392;-69
2022/06/01 10:30:41;;;;;;;4.63;2.65;;;;;;;17.88;100.00;101530.84;5284108;28;20392;-69
2022/06/01 10:33:35;;;;;;;6.18;3.20;;;;;;;17.65;100.00;101526.47;5283924;28;20110;-69
2022/06/01 10:36:35;;;;;;;12.43;3.58;;;;;;;17.43;100.00;101530.25;5262287;28;20485;-69
2022/06/01 10:39:43;;;;;;;6.82;3.30;;;;;;;17.13;100.00;101538.50;5282549;28;20019;-69
2022/06/01 10:42:16;;;;;;;8.60;3.85;;;;;;;16.92;100.00;101544.75;5279418;28;20085;-69
2022/06/01 10:45:12;;;;;;;6.38;3.65;;;;;;;16.64;100.00;101547.28;5280246;28;20487;-68
2022/06/01 10:48:20;;;;;;;7.32;3.92;;;;;;;16.60;100.00;101545.97;5278594;28;20126;-69
2022/06/01 10:51:10;;;;;;;7.28;3.53;;;;;;;16.57;100.00;101549.06;5288519;28;20400;-69
2022/06/01 10:53:58;;;;;;;9.75;3.58;;;;;;;16.70;100.00;101546.53;5275519;28;20124;-68
2022/06/01 10:56:29;;;;;;;5.68;3.20;;;;;;;16.89;100.00;101533.44;5288645;28;20135;-69
2022/06/01 10:59:05;;;;;;;8.80;2.85;;;;;;;17.15;100.00;101544.56;5289114;28;20118;-69
2022/06/01 11:01:45;;;;;;;3.78;2.38;;;;;;;17.63;100.00;101538.56;5285570;28;20069;-69
2022/06/01 11:04:50;;;;;;;4.43;2.90;;;;;;;18.29;100.00;101537.16;5286587;28;20042;-69
2022/06/01 11:07:38;;;;;;;6.25;2.65;;;;;;;18.73;94.13;101540.56;5288805;28;20705;-69
2022/06/01 11:10:27;;;;;;;6.20;3.20;;;;;;;18.95;96.03;101547.53;5267715;28;20016;-69
2022/06/01 11:13:16;;;;;;;5.15;3.20;;;;;;;19.27;95.22;101545.06;5286022;28;20069;-69
2022/06/01 11:16:02;;;;;;;5.03;4.10;;;;;;;19.46;87.76;101548.88;5287663;28;20138;-69
2022/06/01 11:18:47;;;;;;;5.47;3.78;;;;;;;19.73;87.18;101544.31;5278961;28;20027;-69
2022/06/01 11:21:43;;;;;;;10.75;4.13;;;;;;;19.61;90.98;101539.50;5289248;28;20392;-69
2022/06/01 11:24:19;;;;;;;6.03;3.22;;;;;;;19.54;84.58;101546.81;5288610;28;20063;-69
2022/06/01 11:27:10;;;;;;;4.88;2.90;;;;;;;19.39;87.59;101543.44;5282342;27;20024;-69
2022/06/01 11:29:47;;;;;;;4.28;2.70;;;;;;;19.41;83.49;101550.34;5268110;28;20043;-69
2022/06/01 11:32:25;;;;;;;3.38;1.95;;;;;;;19.52;78.18;101557.03;5282479;28;20026;-69
2022/06/01 11:35:05;;;;;;;10.85;2.58;;;;;;;19.76;81.47;101549.34;5288414;28;20483;-69
2022/06/01 11:37:45;;;;;;;9.35;3.03;;;;;;;20.15;82.13;101556.63;5288459;28;20058;-69
2022/06/01 11:40:38;;;;;;;7.97;2.70;;;;;;;19.44;83.73;101565.41;5274987;28;20035;-69
2022/06/01 11:43:27;;;;;;;2.92;2.00;;;;;;;18.36;82.84;101564.38;5288178;28;20068;-69
2022/06/01 11:46:02;;;;;;;9.32;2.53;;;;;;;17.81;88.31;101557.94;5268152;28;20039;-69
2022/06/01 11:48:36;;;;;;;4.63;1.88;;;;;;;17.52;87.02;101558.88;5281861;28;20031;-69
2022/06/01 11:51:14;;;;;;;3.33;2.03;;;;;;;17.35;86.61;101564.59;5267592;28;20028;-69
2022/06/01 11:53:57;;;;;;;4.97;1.52;;;;;;;17.59;90.41;101570.66;5272020;28;20070;-69
2022/06/01 11:56:28;;;;;;;4.88;1.48;;;;;;;17.96;86.76;101560.53;5275235;28;20418;-69
2022/06/01 11:59:18;;;;;;;1.67;1.40;;;;;;;18.22;84.32;101570.75;5289214;28;20405;-69
2022/06/01 12:05:39;;;;;;;1.65;0.88;;;;;;;18.58;81.50;101570.56;5268284;28;20060;-69
2022/06/01 12:08:32;;;;;;;1.70;0.73;;;;;;;18.74;71.75;101572.13;5286002;28;20106;-69
2022/06/01 12:11:06;;;;;;;1.70;0.82;;;;;;;18.55;75.66;101573.66;5274912;28;20031;-69
2022/06/01 12:13:38;;;;;;;1.52;0.85;;;;;;;18.56;75.33;101576.19;5288621;27;20044;-69
2022/06/01 12:16:28;;;;;;;2.40;1.20;;;;;;;18.64;75.75;101573.31;5272320;28;20031;-69
2022/06/01 12:18:58;;;;;;;5.78;1.55;;;;;;;18.57;73.08;101587.88;5280939;28;20461;-69
2022/06/01 12:21:36;;;;;;;3.08;1.65;;;;;;;18.53;73.13;101581.19;5275044;28;20080;-69
2022/06/01 12:30:13;;;;;;;2.20;1.90;;;;;;;18.14;75.31;101585.34;5267620;28;20548;-69
2022/06/01 12:33:03;;;;;;;2.65;2.10;;;;;;;18.40;74.96;101575.69;5273963;28;20388;-69